Pineola, North Carolina
Current Conditions -  °F | °C
As of 10:55 AM on Friday 28 Nov 2014 (Local Time) from KTNB Reporting Station
Broken Clouds Broken Clouds  
Wind Chill: 13°   Ceiling: 1700
Heat Index: 25°   Visibility: 10mi
Dew Point: 16°   Wind: 14mph
Humidity: 69%   Direction: 280°W
Pressure: 30.28"   Gusts: 18mph
Location:  36.03°N, 81.89°W
Report Text: KTNB 281555Z AUTO 28012G16KT 10SM BKN017 M04/M09 A3028 RMK AO2 T10401090
Loading
Personal Weather Stations






























Interactive Weather Map New forecast layout! Learn more

10-Day Weather Forecast

Advertisements
Track Severe Weather on mobile